This is the latest recevied weather packets stored in our database for station/object OH2HCY. If no packets are shown the sender has not sent any weather packets the latest 10 day(s).
| Time | Temp. | Humidity | Pressure | Rain* | Wind** | Luminosity | Snow |
|---|---|---|---|---|---|---|---|
| 1777824960 | 15° C | 50% | 1002.3 hPa | - | - | - | - |
| 1777824399 | 15° C | 49% | 1002.2 hPa | - | - | - | - |
| 1777822270 | 15.56° C | 49% | 1002.1 hPa | - | - | - | - |
| 1777821745 | 15° C | 48% | 1002 hPa | - | - | - | - |
| 1777819610 | 15° C | 49% | 1002.2 hPa | - | - | - | - |
| 1777819030 | 15.56° C | 48% | 1002 hPa | - | - | - | - |
| 1777817930 | 16.11° C | 47% | 1001.8 hPa | - | - | - | - |
| 1777817355 | 15.56° C | 48% | 1001.9 hPa | - | - | - | - |
| 1777816320 | 16.11° C | 47% | 1001.8 hPa | - | - | - | - |
| 1777812545 | 15.56° C | 49% | 1002 hPa | - | - | - | - |
| 1777811475 | 16.11° C | 50% | 1002 hPa | - | - | - | - |
| 1777810930 | 15.56° C | 52% | 1002.3 hPa | - | - | - | - |
| 1777809850 | 15.56° C | 51% | 1002.2 hPa | - | - | - | - |
| 1777808810 | 15° C | 55% | 1002.7 hPa | - | - | - | - |
| 1777808235 | 14.44° C | 55% | 1003 hPa | - | - | - | - |
| 1777805605 | 14.44° C | 55% | 1002.7 hPa | - | - | - | - |
| 1777803955 | 15° C | 53% | 1002.2 hPa | - | - | - | - |
| 1777803415 | 15° C | 53% | 1002.1 hPa | - | - | - | - |
| 1777802875 | 15° C | 54% | 1002.2 hPa | - | - | - | - |
| 1777802330 | 15° C | 54% | 1002.1 hPa | - | - | - | - |
| 1777801815 | 14.44° C | 56% | 1002.7 hPa | - | - | - | - |
| 1777800705 | 12.78° C | 60% | 1003.6 hPa | - | - | - | - |
| 1777800135 | 12.78° C | 60% | 1003.6 hPa | - | - | - | - |
| 1777799630 | 12.78° C | 61% | 1003.7 hPa | - | - | - | - |
| 1777799080 | 12.22° C | 62% | 1003.8 hPa | - | - | - | - |
* Rain since midnight (hover to see other rain measurements)
** Current wind speed in m/s (hover to see current wind gust speed)